• Join FlightAware (Why Join?)
  • Login
  • US Flag 
05:48PM EDT


 

Airport Tracker/Info


-or-


 

Live Flight TrackerFlight Track Log ✈ SWA1377 ✈ 01-Mar-2014 ✈ KLAS - KDTW

Flight Track Log - Related Links

Times and Time Zones

All times are in EST time to prevent confusion due to time zone crossing. See the SWA1377 flight status page for this flight to view local times or setup timezone preferences in your user account.

Time Position Orientation Groundspeed Altitude Reporting Facility
EST Latitude Longitude Course Direction KTS MPH feet Rate Location/Type
01:10PM 36.0767 -115.1706 270° West 163 188 3,500  Level Los Angeles Center
01:11PM 36.0767 -115.2506 270° West 217 250 6,200 2,700 Climbing Los Angeles Center
01:11PM 36.0886 -115.2806 296° West 228 262 8,000 3,360 Climbing Los Angeles Center
01:12PM 36.1358 -115.2950 346° North 246 283 10,000 2,820 Climbing Los Angeles Center
01:12PM 36.1558 -115.2831 26° Northeast 261 300 10,900 2,280 Climbing Los Angeles Center
01:13PM 36.1842 -115.2178 62° Northeast 284 327 12,600 1,800 Climbing Los Angeles Center
01:14PM 36.1911 -115.1953 69° East 289 333 12,800 1,980 Climbing Los Angeles Center
01:15PM 36.1961 -115.0644 87° East 350 403 15,200 2,340 Climbing Los Angeles Center
01:16PM 36.1981 -114.9331 89° East 377 434 17,700 1,800 Climbing Los Angeles Center
01:17PM 36.2003 -114.7947 89° East 395 455 19,000 1,560 Climbing Los Angeles Center
01:18PM 36.1989 -114.6550 91° East 402 463 20,900 1,800 Climbing Los Angeles Center
01:19PM 36.1975 -114.5094 91° East 417 480 22,700 1,800 Climbing Los Angeles Center
01:20PM 36.1958 -114.3544 91° East 442 509 24,700 1,860 Climbing Los Angeles Center
01:21PM 36.1967 -114.1939 90° East 460 529 26,600 1,680 Climbing Los Angeles Center
01:22PM 36.2200 -114.0308 80° East 477 549 28,200 1,620 Climbing Los Angeles Center
01:23PM 36.2428 -113.8272 82° East 493 567 30,000 1,380 Climbing Los Angeles Center
01:24PM 36.2633 -113.6544 82° East 503 579 31,100 1,260 Climbing Los Angeles Center
01:25PM 36.2842 -113.4792 82° East 513 590 32,700 1,500 Climbing Los Angeles Center
01:26PM 36.3036 -113.3019 82° East 517 595 34,200 1,440 Climbing Los Angeles Center
01:27PM 36.3511 -113.1200 72° East 530 610 35,700 1,320 Climbing Los Angeles Center
01:28PM 36.4122 -112.9572 65° Northeast 523 602 37,000 600 Climbing Los Angeles Center
01:29PM 36.4722 -112.7931 66° East 524 603 37,000  Level Los Angeles Center
01:30PM 36.5319 -112.6306 65° Northeast 521 600 37,000  Level Los Angeles Center
01:31PM 36.5914 -112.4683 65° Northeast 519 597 37,000  Level Los Angeles Center
01:32PM 36.6628 -112.2719 66° East 520 598 37,000  Level Los Angeles Center
01:33PM 36.7228 -112.1067 66° East 525 604 37,000  Level Los Angeles Center
01:34PM 36.7819 -111.9425 66° East 524 603 37,000  Level Los Angeles Center
01:35PM 36.8394 -111.7778 66° East 522 601 37,000  Level Los Angeles Center
01:36PM 36.8983 -111.6119 66° East 524 603 37,000  Level Los Angeles Center
01:37PM 36.9500 -111.4736 65° Northeast 531 611 37,000  Level Denver Center
01:38PM 37.0092 -111.3014 67° East 539 620 37,000  Level Denver Center
01:39PM 37.0700 -111.1278 66° East 543 625 37,000  Level Denver Center
01:40PM 37.1397 -110.9567 63° Northeast 549 632 37,000  Level Denver Center
01:41PM 37.2072 -110.7858 64° Northeast 550 633 37,000  Level Denver Center
01:42PM 37.2725 -110.6142 64° Northeast 549 632 37,000  Level Denver Center
01:43PM 37.3531 -110.4069 64° Northeast 553 636 37,000  Level Denver Center
01:44PM 37.4200 -110.2328 64° Northeast 552 635 37,000  Level Denver Center
01:45PM 37.4811 -110.0711 64° Northeast 554 638 37,000  Level Denver Center
01:46PM 37.5556 -109.8747 64° Northeast 556 640 37,000  Level Denver Center
01:47PM 37.6194 -109.7072 64° Northeast 556 640 37,000  Level Denver Center
01:48PM 37.6936 -109.5081 65° Northeast 556 640 37,000  Level Denver Center
01:49PM 37.7575 -109.3358 65° Northeast 562 647 37,000  Level Denver Center
01:50PM 37.8319 -109.1364 65° Northeast 562 647 37,000  Level Denver Center
01:51PM 37.8958 -108.9647 65° Northeast 562 647 37,000  Level Denver Center
01:52PM 37.9592 -108.7883 65° Northeast 566 651 37,000  Level Denver Center
01:53PM 38.0344 -108.5836 65° Northeast 570 656 37,000  Level Denver Center
01:54PM 38.0961 -108.4111 66° East 570 656 37,000  Level Denver Center
01:55PM 38.1692 -108.2094 65° Northeast 570 656 37,000  Level Denver Center
01:56PM 38.2303 -108.0353 66° East 566 651 37,000  Level Denver Center
01:57PM 38.3017 -107.8350 66° East 558 642 37,000  Level Denver Center
01:58PM 38.3522 -107.6922 66° East 558 642 37,000  Level Denver Center
01:59PM 38.4333 -107.4619 66° East 558 642 37,000  Level Denver Center
02:01PM 38.4947 -107.2889 66° East 558 642 37,000  Level Denver Center
02:02PM 38.5508 -107.1217 67° East 558 642 37,000  Level Denver Center
02:03PM 38.6247 -106.9061 66° East 556 640 37,000  Level Denver Center
02:04PM 38.6867 -106.7269 66° East 555 639 37,000  Level Denver Center
02:05PM 38.7464 -106.5472 67° East 553 636 37,000  Level Denver Center
02:06PM 38.8072 -106.3686 66° East 553 636 37,000  Level Denver Center
02:07PM 38.8675 -106.1883 67° East 553 636 37,000  Level Denver Center
02:08PM 38.9264 -106.0089 67° East 549 632 37,000  Level Denver Center
02:09PM 38.9975 -105.7958 67° East 545 627 37,000  Level Denver Center
02:10PM 39.0569 -105.6136 67° East 548 631 37,000  Level Denver Center
02:11PM 39.1181 -105.4247 67° East 566 651 37,000  Level Denver Center
02:12PM 39.1794 -105.2367 67° East 572 658 37,000  Level Denver Center
02:13PM 39.2392 -105.0506 67° East 570 656 37,000  Level Denver Center
02:14PM 39.2983 -104.8653 68° East 567 652 37,000  Level Denver Center
02:15PM 39.3681 -104.6481 67° East 559 643 37,000  Level Denver Center
02:16PM 39.4261 -104.4672 67° East 558 642 37,000  Level Denver Center
02:17PM 39.4822 -104.2844 68° East 558 642 37,000  Level Denver Center
02:18PM 39.5397 -104.1022 68° East 556 640 37,000  Level Denver Center
02:19PM 39.6081 -103.8789 68° East 556 640 37,000  Level Denver Center
02:20PM 39.6653 -103.6931 68° East 556 640 37,000  Level Denver Center
02:21PM 39.7219 -103.5056 68° East 558 642 37,000  Level Denver Center
02:22PM 39.7792 -103.3181 68° East 560 644 37,000  Level Denver Center
02:23PM 39.8356 -103.1300 69° East 560 644 37,000  Level Denver Center
02:24PM 39.8911 -102.9428 69° East 559 643 37,000  Level Denver Center
02:25PM 39.9367 -102.7928 68° East 558 642 37,000  Level Denver Center
02:26PM 40.0136 -102.5269 69° East 558 642 37,000  Level Denver Center
02:27PM 40.0581 -102.3744 69° East 560 644 37,000  Level Denver Center
02:28PM 40.1197 -102.1603 69° East 565 650 37,000  Level Denver Center
02:29PM 40.1828 -101.9417 69° East 577 664 37,000  Level Denver Center
02:30PM 40.2364 -101.7531 70° East 577 664 37,000  Level Denver Center
02:31PM 40.2989 -101.5317 70° East 579 666 37,000  Level Denver Center
02:32PM 40.3531 -101.3425 69° East 580 667 37,000  Level Denver Center
02:34PM 40.4669 -100.9303 70° East 582 670 37,000  Level Denver Center
02:36PM 40.5269 -100.7089 70° East 583 671 37,000  Level Denver Center
02:37PM 40.5781 -100.5214 70° East 581 669 37,000  Level Denver Center
02:38PM 40.6369 -100.3022 70° East 579 666 37,000  Level Denver Center
02:39PM 40.6875 -100.1131 71° East 576 663 37,000  Level Denver Center
02:40PM 40.7456 -99.8931 71° East 575 662 37,000  Level Denver Center
02:41PM 40.7911 -99.7203 71° East 575 662 37,000  Level Denver Center
02:42PM 40.8536 -99.4828 71° East 573 659 37,000  Level Denver Center
02:43PM 40.9047 -99.2836 71° East 573 659 37,000  Level Denver Center
02:44PM 40.9517 -99.1006 71° East 573 659 37,000  Level Denver Center
02:44PM 40.9825 -98.9789 71° East 575 662 37,000 360 Level Minneapolis Center
02:45PM 41.0328 -98.7778 72° East 575 662 37,600 960 Climbing Minneapolis Center
02:46PM 41.0825 -98.5825 71° East 567 652 39,000 660 Climbing Minneapolis Center
02:47PM 41.1303 -98.3908 72° East 556 640 39,000  Level Minneapolis Center
02:48PM 41.1778 -98.1961 72° East 554 638 39,000  Level Minneapolis Center
02:49PM 41.2253 -98.0017 72° East 554 638 39,000  Level Minneapolis Center
02:50PM 41.2817 -97.7661 72° East 555 639 39,000  Level Minneapolis Center
02:51PM 41.3294 -97.5703 72° East 555 639 39,000  Level Minneapolis Center
02:52PM 41.3764 -97.3739 72° East 555 639 39,000  Level Minneapolis Center
02:54PM 41.4228 -97.1767 73° East 555 639 39,000  Level Minneapolis Center
02:55PM 41.4689 -96.9808 72° East 555 639 39,000  Level Minneapolis Center
02:56PM 41.5136 -96.7856 73° East 555 639 39,000  Level Minneapolis Center
02:57PM 41.5606 -96.5894 72° East 554 638 39,000  Level Minneapolis Center
02:58PM 41.6044 -96.3928 73° East 552 635 39,000  Level Minneapolis Center
02:59PM 41.6483 -96.1953 73° East 550 633 39,000  Level Minneapolis Center
03:00PM 41.6936 -95.9958 73° East 550 633 39,000  Level Minneapolis Center
03:01PM 41.7381 -95.7958 73° East 551 634 39,000  Level Minneapolis Center
03:02PM 41.7817 -95.5950 74° East 555 639 39,000  Level Minneapolis Center
03:03PM 41.8264 -95.3947 73° East 557 641 39,000  Level Minneapolis Center
03:04PM 41.8778 -95.1531 74° East 558 642 39,000  Level Minneapolis Center
03:05PM 41.9211 -94.9486 74° East 565 650 39,000  Level Minneapolis Center
03:06PM 41.9642 -94.7447 74° East 566 651 39,000  Level Minneapolis Center
03:07PM 42.0072 -94.5386 74° East 568 654 39,000  Level Minneapolis Center
03:08PM 42.0497 -94.3306 75° East 572 658 39,000  Level Minneapolis Center
03:09PM 42.0922 -94.1225 75° East 573 659 39,000 -120 Level Minneapolis Center
03:10PM 42.1358 -93.9147 74° East 576 663 38,800 -600 Descending Minneapolis Center
03:11PM 42.1744 -93.7164 75° East 567 652 37,800 -900 Descending Minneapolis Center
03:12PM 42.2222 -93.4747 75° East 562 647 37,000 -420 Descending Minneapolis Center
03:13PM 42.2617 -93.2739 75° East 560 644 37,000  Level Minneapolis Center
03:14PM 42.3017 -93.0722 75° East 560 644 37,000  Level Minneapolis Center
03:15PM 42.3239 -92.9494 76° East 560 644 37,000  Level Chicago Center
03:16PM 42.3633 -92.7481 75° East 561 646 37,000  Level Chicago Center
03:17PM 42.4011 -92.5450 76° East 561 646 37,000  Level Chicago Center
03:18PM 42.4397 -92.3428 75° East 561 646 37,000  Level Chicago Center
03:19PM 42.4842 -92.1019 76° East 556 640 37,000  Level Chicago Center
03:20PM 42.5214 -91.9031 76° East 551 634 37,000  Level Chicago Center
03:21PM 42.5564 -91.7067 76° East 547 629 37,000  Level Chicago Center
03:22PM 42.5925 -91.5125 76° East 546 628 37,000  Level Chicago Center
03:23PM 42.6275 -91.3183 76° East 543 625 37,000  Level Chicago Center
03:24PM 42.6689 -91.0772 77° East 547 629 37,000  Level Chicago Center
03:25PM 42.7017 -90.8781 77° East 545 627 37,000  Level Chicago Center
03:26PM 42.7356 -90.6758 77° East 552 635 37,000  Level Chicago Center
03:27PM 42.7697 -90.4744 77° East 550 633 37,000  Level Chicago Center
03:28PM 42.8042 -90.2736 77° East 545 627 37,000  Level Chicago Center
03:29PM 42.8347 -90.0733 78° East 543 625 37,000  Level Chicago Center
03:30PM 42.8756 -89.8411 76° East 545 627 37,000  Level Chicago Center
03:31PM 42.9075 -89.6411 78° East 543 625 37,000  Level Chicago Center
03:32PM 42.9394 -89.4392 78° East 545 627 37,000  Level Chicago Center
03:33PM 42.9717 -89.2369 78° East 546 628 37,000  Level Chicago Center
03:34PM 43.0031 -89.0372 78° East 544 626 37,000  Level Chicago Center
03:35PM 43.0336 -88.8339 78° East 550 633 37,000  Level Chicago Center
03:36PM 43.0708 -88.5939 78° East 544 626 37,000  Level Chicago Center
03:37PM 43.0997 -88.3947 79° East 541 623 37,000  Level Chicago Center
03:38PM 43.1289 -88.1936 79° East 546 628 37,000 -720 Level Chicago Center
03:39PM 43.1533 -87.9889 81° East 550 633 35,600 -1,680 Descending Chicago Center
03:40PM 43.1806 -87.7794 80° East 562 647 33,600 -1,320 Descending Chicago Center
03:41PM 43.2058 -87.5708 80° East 558 642 33,000 -300 Descending Chicago Center
03:42PM 43.2314 -87.3436 81° East 563 648 33,000  Level Chicago Center
03:43PM 43.2561 -87.1306 81° East 566 651 33,000  Level Chicago Center
03:44PM 43.2811 -86.9178 81° East 566 651 33,000  Level Chicago Center
03:45PM 43.3058 -86.7042 81° East 566 651 33,000 -480 Level Chicago Center
03:46PM 43.3192 -86.4889 85° East 567 652 32,100 -1,020 Descending Chicago Center
03:47PM 43.3067 -86.2853 95° East 535 616 31,000 -1,080 Descending Chicago Center
03:48PM 43.2964 -86.0775 94° East 541 623 30,000 -1,500 Descending Chicago Center
03:49PM 43.2856 -85.8767 94° East 527 606 28,000 -1,920 Descending Chicago Center
03:50PM 43.2753 -85.6828 94° East 508 585 26,100 -2,040 Descending Chicago Center
03:51PM 43.2625 -85.4603 94° East 487 560 23,900 -1,560 Descending Chicago Center
03:52PM 43.2514 -85.2836 95° East 470 541 23,000 -480 Descending Chicago Center
03:53PM 43.2275 -85.1111 101° East 462 532 23,000  Level Chicago Center
03:54PM 43.1956 -84.9417 104° East 460 529 23,000 -180 Level Chicago Center
03:56PM 43.1611 -84.7739 106° East 460 529 22,700 -840 Descending Chicago Center
03:57PM 43.1114 -84.6164 113° Southeast 452 520 21,300 -1,740 Descending Chicago Center
03:58PM 43.0631 -84.4600 113° Southeast 448 516 19,200 -1,860 Descending Chicago Center
03:59PM 43.0158 -84.3044 113° Southeast 444 511 17,600 -1,680 Descending Chicago Center
03:59PM 42.9761 -84.1853 114° Southeast 426 490 16,400 -1,620 Descending Cleveland Center
04:00PM 42.9636 -84.1392 110° East 427 491 15,800 -1,800 Descending Cleveland Center
04:00PM 42.9478 -84.0981 118° Southeast 415 478 15,300 -1,800 Descending Cleveland Center
04:01PM 42.9200 -83.9953 110° East 415 478 14,000 -1,860 Descending Cleveland Center
04:01PM 42.9086 -83.9636 116° Southeast 410 472 13,600 -1,800 Descending Cleveland Center
04:02PM 42.8669 -83.8283 113° Southeast 400 460 12,200 -1,380 Descending Cleveland Center
04:02PM 42.8586 -83.8078 119° Southeast 389 448 12,100 -300 Descending Cleveland Center
04:03PM 42.8111 -83.7194 126° Southeast 359 413 11,900 -540 Descending Cleveland Center
04:03PM 42.7969 -83.7131 162° South 302 348 11,600 -1,560 Descending Cleveland Center
04:04PM 42.7328 -83.6733 156° South 309 356 10,300 -1,380 Descending Cleveland Center
04:04PM 42.7189 -83.6675 163° South 309 356 10,200 -1,200 Descending Cleveland Center
04:05PM 42.6675 -83.6033 137° Southeast 312 359 9,100 -1,320 Descending Cleveland Center
04:05PM 42.6581 -83.5875 129° Southeast 324 373 8,900 -1,080 Descending Cleveland Center
04:06PM 42.6156 -83.5086 126° Southeast 315 362 8,000 -1,140 Descending Cleveland Center
04:06PM 42.6067 -83.4950 132° Southeast 300 345 7,800 -1,200 Descending Cleveland Center
04:07PM 42.5628 -83.4294 132° Southeast 287 330 6,800 -1,200 Descending Cleveland Center
04:07PM 42.5542 -83.4194 139° Southeast 261 300 6,600 -1,020 Descending Cleveland Center
04:08PM 42.5117 -83.3597 134° Southeast 266 306 5,800 -1,140 Descending Cleveland Center
04:08PM 42.5047 -83.3528 144° Southeast 245 282 5,500 -1,740 Descending Cleveland Center
04:09PM 42.4608 -83.2958 136° Southeast 231 266 4,200 -1,260 Descending Cleveland Center
04:09PM 42.4642 -83.2989 326° Northwest 242 278 4,300 -180 Climbing Cleveland Center
04:10PM 42.4008 -83.2589 155° Southeast 198 228 4,000 -300 Descending Cleveland Center
04:11PM 42.3561 -83.2694 190° South 183 211 3,800 -600 Descending Cleveland Center
04:12PM 42.3117 -83.3031 209° Southwest 169 194 2,800 -960 Descending Cleveland Center
04:13PM 42.2769 -83.3281 208° Southwest 165 190 1,900 -900 Descending Cleveland Center
04:13PM 42.2714 -83.3342 219° Southwest 137 158 1,800 -840 Descending Cleveland Center
04:14PM 42.2361 -83.3572 206° Southwest 140 161 1,000 -540 Descending Cleveland Center
04:15PM 42.2117 -83.3775 212° Southwest 144 166 800 -240 Descending Cleveland Center